createdAt,value
2018-05-25T00:02:10.415Z,101590
2018-05-25T00:04:39.359Z,101589
2018-05-25T00:07:07.480Z,101594
2018-05-25T00:09:36.445Z,101588
2018-05-25T00:12:04.577Z,101593
2018-05-25T00:14:32.716Z,101590
2018-05-25T00:17:01.740Z,101590
2018-05-25T00:19:29.885Z,101598
2018-05-25T00:21:58.810Z,101593
2018-05-25T00:24:26.973Z,101594
2018-05-25T00:38:46.381Z,101595
2018-05-25T00:41:15.309Z,101598
2018-05-25T00:43:43.511Z,101591
2018-05-25T00:46:11.674Z,101591
2018-05-25T00:48:39.830Z,101589
2018-05-25T00:51:08.009Z,101589
2018-05-25T00:53:36.213Z,101584
2018-05-25T00:56:04.348Z,101591
2018-05-25T00:58:32.464Z,101592
2018-05-25T01:01:00.818Z,101587
2018-05-25T01:03:29.012Z,101587
2018-05-25T01:05:57.181Z,101593
2018-05-25T01:08:25.457Z,101590
2018-05-25T01:10:53.596Z,101583
2018-05-25T01:13:21.749Z,101580
2018-05-25T01:15:50.042Z,101581
2018-05-25T01:18:18.181Z,101582
2018-05-25T01:20:47.223Z,101589
2018-05-25T01:23:15.422Z,101591
2018-05-25T01:25:43.570Z,101589
2018-05-25T01:28:11.730Z,101597
2018-05-25T01:30:39.905Z,101581
2018-05-25T01:33:08.046Z,101585
2018-05-25T01:35:36.241Z,101581
2018-05-25T01:38:04.400Z,101585
2018-05-25T01:40:33.271Z,101585
2018-05-25T01:43:02.237Z,101585
2018-05-25T01:45:30.410Z,101584
2018-05-25T01:47:58.585Z,101588
2018-05-25T01:50:26.783Z,101589
2018-05-25T01:52:55.721Z,101585
2018-05-25T01:55:23.937Z,101591
2018-05-25T01:57:52.889Z,101580
2018-05-25T02:00:21.041Z,101588
2018-05-25T02:02:49.229Z,101595
2018-05-25T02:05:17.389Z,101591
2018-05-25T02:07:45.554Z,101592
2018-05-25T02:10:13.702Z,101590
2018-05-25T02:12:42.650Z,101583
2018-05-25T02:15:10.802Z,101590
2018-05-25T02:17:38.972Z,101588
2018-05-25T02:20:07.140Z,101591
2018-05-25T02:22:35.273Z,101589
2018-05-25T02:25:04.218Z,101584
2018-05-25T02:27:32.373Z,101582
2018-05-25T02:30:01.346Z,101581
2018-05-25T02:32:29.534Z,101581
2018-05-25T02:34:57.799Z,101580
2018-05-25T02:37:25.930Z,101575
2018-05-25T02:39:54.086Z,101571
2018-05-25T02:42:22.299Z,101571
2018-05-25T02:44:51.289Z,101578
2018-05-25T02:47:20.240Z,101576
2018-05-25T02:49:49.227Z,101564
2018-05-25T02:52:17.433Z,101563
2018-05-25T02:54:45.560Z,101553
2018-05-25T02:57:13.750Z,101566
2018-05-25T02:59:41.910Z,101566
2018-05-25T03:02:10.040Z,101566
2018-05-25T03:04:38.266Z,101576
2018-05-25T03:07:06.446Z,101571
2018-05-25T03:09:34.639Z,101570
2018-05-25T03:12:02.823Z,101567
2018-05-25T03:14:31.708Z,101564
2018-05-25T03:16:59.883Z,101566
2018-05-25T03:19:28.823Z,101556
2018-05-25T03:21:56.965Z,101568
2018-05-25T03:24:25.943Z,101562
2018-05-25T03:26:54.890Z,101561
2018-05-25T03:29:23.024Z,101563
2018-05-25T03:31:51.239Z,101563
2018-05-25T03:34:19.862Z,101563
2018-05-25T03:36:48.827Z,101558
2018-05-25T03:39:17.018Z,101561
2018-05-25T03:41:45.166Z,101559
2018-05-25T03:44:13.362Z,101556
2018-05-25T03:46:41.528Z,101565
2018-05-25T03:49:10.351Z,101568
2018-05-25T03:51:38.886Z,101572
2018-05-25T03:54:07.079Z,101580
2018-05-25T03:56:35.246Z,101576
2018-05-25T03:59:21.452Z,101576
2018-05-25T04:01:58.211Z,101589
2018-05-25T04:04:26.475Z,101584
2018-05-25T04:06:54.716Z,101577
2018-05-25T04:09:22.874Z,101576
2018-05-25T04:11:51.082Z,101569
2018-05-25T04:14:19.268Z,101571
2018-05-25T04:16:47.521Z,101581
2018-05-25T04:19:15.669Z,101577
2018-05-25T04:21:43.850Z,101575
2018-05-25T04:24:11.993Z,101576
2018-05-25T04:26:40.876Z,101580
2018-05-25T04:29:09.277Z,101571
2018-05-25T04:31:37.815Z,101571
2018-05-25T04:34:05.955Z,101577
2018-05-25T04:36:34.085Z,101575
2018-05-25T04:39:02.235Z,101575
2018-05-25T04:41:30.349Z,101578
2018-05-25T04:43:58.513Z,101573
2018-05-25T04:46:28.270Z,101574
2018-05-25T04:48:56.590Z,101573
2018-05-25T04:51:26.162Z,101569
2018-05-25T04:53:54.352Z,101569
2018-05-25T04:56:22.593Z,101566
2018-05-25T04:58:50.789Z,101573
2018-05-25T05:01:18.950Z,101573
2018-05-25T05:03:47.094Z,101570
2018-05-25T05:06:15.289Z,101571
2018-05-25T05:08:43.499Z,101569
2018-05-25T05:11:12.495Z,101569
2018-05-25T05:13:41.406Z,101568
2018-05-25T05:16:10.450Z,101572
2018-05-25T05:18:38.618Z,101573
2018-05-25T05:21:06.778Z,101566
2018-05-25T05:23:34.963Z,101571
2018-05-25T05:26:03.120Z,101567
2018-05-25T05:28:31.289Z,101565
2018-05-25T05:30:59.490Z,101568
2018-05-25T05:33:27.666Z,101566
2018-05-25T05:35:55.846Z,101564
2018-05-25T05:38:24.030Z,101569
2018-05-25T05:40:52.895Z,101564
2018-05-25T05:43:21.170Z,101570
2018-05-25T05:45:49.450Z,101573
2018-05-25T05:48:17.632Z,101576
2018-05-25T05:50:45.756Z,101578
2018-05-25T05:53:13.930Z,101569
2018-05-25T05:55:42.095Z,101581
2018-05-25T05:58:10.298Z,101579
2018-05-25T06:00:38.569Z,101575
2018-05-25T06:03:06.708Z,101575
2018-05-25T06:05:34.825Z,101568
2018-05-25T06:08:02.986Z,101568
2018-05-25T06:10:31.129Z,101572
2018-05-25T06:12:59.289Z,101561
2018-05-25T06:15:28.212Z,101567
2018-05-25T06:17:56.402Z,101563
2018-05-25T06:20:24.532Z,101568
2018-05-25T06:22:52.703Z,101562
2018-05-25T06:25:20.911Z,101564
2018-05-25T06:27:49.077Z,101566
2018-05-25T06:30:17.243Z,101569
2018-05-25T06:32:45.431Z,101563
2018-05-25T06:35:13.582Z,101565
2018-05-25T06:37:41.757Z,101563
2018-05-25T06:40:09.934Z,101560
2018-05-25T06:42:38.082Z,101565
2018-05-25T06:45:07.123Z,101555
2018-05-25T06:47:35.303Z,101568
2018-05-25T06:50:03.500Z,101559
2018-05-25T06:52:31.664Z,101563
2018-05-25T06:54:59.788Z,101562
2018-05-25T06:57:27.973Z,101563
2018-05-25T06:59:56.142Z,101558
2018-05-25T07:02:24.327Z,101546
2018-05-25T07:04:52.456Z,101551
2018-05-25T07:07:21.408Z,101549
2018-05-25T07:09:49.557Z,101553
2018-05-25T07:12:17.680Z,101554
2018-05-25T07:14:45.845Z,101553
2018-05-25T07:17:14.769Z,101547
2018-05-25T07:19:43.826Z,101555
2018-05-25T07:22:12.266Z,101556
2018-05-25T07:24:40.435Z,101549
2018-05-25T07:27:08.608Z,101551
2018-05-25T07:29:36.822Z,101552
2018-05-25T07:32:04.949Z,101552
2018-05-25T07:34:33.138Z,101553
2018-05-25T07:37:01.315Z,101552
2018-05-25T07:39:29.450Z,101548
2018-05-25T07:41:57.735Z,101553
2018-05-25T07:44:25.903Z,101551
2018-05-25T07:46:54.102Z,101551
2018-05-25T07:49:22.278Z,101553
2018-05-25T07:51:50.461Z,101564
2018-05-25T07:54:18.689Z,101562
2018-05-25T07:56:46.909Z,101557
2018-05-25T07:59:15.081Z,101559
2018-05-25T08:01:43.257Z,101554
2018-05-25T08:04:11.597Z,101559
2018-05-25T08:06:39.739Z,101547
2018-05-25T08:09:08.621Z,101556
2018-05-25T08:11:36.755Z,101557
2018-05-25T08:14:04.906Z,101559
2018-05-25T08:16:33.063Z,101557
2018-05-25T08:19:01.260Z,101563
2018-05-25T08:21:29.426Z,101556
2018-05-25T08:23:57.602Z,101558
2018-05-25T08:26:26.422Z,101557
2018-05-25T08:28:54.553Z,101557
2018-05-25T08:31:22.741Z,101555
2018-05-25T08:33:50.868Z,101569
2018-05-25T08:36:19.803Z,101561
2018-05-25T08:38:47.951Z,101560
2018-05-25T08:41:16.104Z,101561
2018-05-25T08:43:44.987Z,101554
2018-05-25T08:46:13.138Z,101558
2018-05-25T08:48:41.602Z,101557
2018-05-25T08:51:09.658Z,101556
2018-05-25T08:53:37.826Z,101557
2018-05-25T08:56:05.983Z,101562
2018-05-25T08:58:34.163Z,101551
2018-05-25T09:01:02.328Z,101553
2018-05-25T09:03:30.505Z,101546
2018-05-25T09:05:58.691Z,101548
2018-05-25T09:08:26.862Z,101552
2018-05-25T09:10:55.028Z,101552
2018-05-25T09:13:23.179Z,101555
2018-05-25T09:15:52.068Z,101552
2018-05-25T09:18:20.981Z,101556
2018-05-25T09:20:49.195Z,101551
2018-05-25T09:23:17.369Z,101542
2018-05-25T09:25:45.599Z,101543
2018-05-25T09:28:13.872Z,101544
2018-05-25T09:30:42.095Z,101533
2018-05-25T09:33:10.241Z,101548
2018-05-25T09:35:38.380Z,101543
2018-05-25T09:38:07.279Z,101537
2018-05-25T09:40:35.470Z,101542
2018-05-25T09:43:03.655Z,101531
2018-05-25T09:45:31.926Z,101527
2018-05-25T09:48:00.106Z,101533
2018-05-25T09:50:28.490Z,101532
2018-05-25T09:52:56.662Z,101534
2018-05-25T09:55:24.819Z,101526
2018-05-25T09:57:56.966Z,101521
2018-05-25T10:00:25.882Z,101521
2018-05-25T10:02:54.023Z,101517
2018-05-25T10:05:22.196Z,101524
2018-05-25T10:07:50.409Z,101519
2018-05-25T10:10:18.644Z,101518
2018-05-25T10:12:46.823Z,101514
2018-05-25T10:15:15.049Z,101507
2018-05-25T10:17:43.232Z,101517
2018-05-25T10:20:11.373Z,101518
2018-05-25T10:22:39.560Z,101519
2018-05-25T10:25:07.684Z,101516
2018-05-25T10:27:35.817Z,101519
2018-05-25T10:30:03.960Z,101530
2018-05-25T10:32:32.082Z,101511
2018-05-25T10:35:00.992Z,101518
2018-05-25T10:37:29.932Z,101519
2018-05-25T10:39:58.098Z,101508
2018-05-25T10:42:26.247Z,101512
2018-05-25T10:44:54.424Z,101505
2018-05-25T10:47:22.982Z,101510
2018-05-25T10:49:51.122Z,101512
2018-05-25T10:52:19.260Z,101499
2018-05-25T10:54:47.414Z,101495
2018-05-25T10:57:15.598Z,101496
2018-05-25T10:59:43.722Z,101498
2018-05-25T11:02:12.671Z,101488
2018-05-25T11:04:40.867Z,101500
2018-05-25T11:07:09.006Z,101494
2018-05-25T11:09:37.171Z,101494
2018-05-25T11:12:05.335Z,101483
2018-05-25T11:14:33.535Z,101484
2018-05-25T11:17:01.699Z,101487
2018-05-25T11:19:29.867Z,101492
2018-05-25T11:21:58.045Z,101497
2018-05-25T11:24:26.222Z,101485
2018-05-25T11:26:54.397Z,101481
2018-05-25T11:29:22.565Z,101479
2018-05-25T11:31:50.743Z,101479
2018-05-25T11:34:18.949Z,101468
2018-05-25T11:36:47.108Z,101468
2018-05-25T11:39:15.254Z,101471
2018-05-25T11:41:43.451Z,101474
2018-05-25T11:44:11.569Z,101475
2018-05-25T11:46:39.795Z,101468
2018-05-25T11:49:07.947Z,101477
2018-05-25T11:51:36.104Z,101469
2018-05-25T11:54:04.243Z,101470
2018-05-25T11:56:33.182Z,101466
2018-05-25T11:59:01.359Z,101474
2018-05-25T12:01:29.551Z,101472
2018-05-25T12:03:57.699Z,101470
2018-05-25T12:06:25.850Z,101463
2018-05-25T12:08:54.024Z,101463
2018-05-25T12:11:22.237Z,101458
2018-05-25T12:13:50.424Z,101460
2018-05-25T12:16:19.342Z,101456
2018-05-25T12:18:48.459Z,101448
2018-05-25T12:21:16.662Z,101454
2018-05-25T12:23:44.791Z,101453
2018-05-25T12:26:12.978Z,101441
2018-05-25T12:28:41.130Z,101436
2018-05-25T12:31:10.066Z,101450
2018-05-25T12:33:39.015Z,101445
2018-05-25T12:36:07.197Z,101439
2018-05-25T12:38:35.400Z,101437
2018-05-25T12:41:03.540Z,101440
2018-05-25T12:43:31.712Z,101446
2018-05-25T12:45:59.969Z,101448
2018-05-25T12:48:29.017Z,101446
2018-05-25T12:50:57.199Z,101442
2018-05-25T12:53:25.427Z,101443
2018-05-25T12:55:53.582Z,101444
2018-05-25T12:58:22.629Z,101436
2018-05-25T13:00:50.772Z,101431
2018-05-25T13:03:18.921Z,101437
2018-05-25T13:05:47.119Z,101447
2018-05-25T13:08:15.249Z,101448
2018-05-25T13:10:43.415Z,101435
2018-05-25T13:13:11.633Z,101434
2018-05-25T13:15:39.781Z,101429
2018-05-25T13:18:08.736Z,101427
2018-05-25T13:20:36.903Z,101421
2018-05-25T13:23:05.086Z,101423
2018-05-25T13:25:33.255Z,101425
2018-05-25T13:28:01.440Z,101427
2018-05-25T13:30:29.602Z,101428
2018-05-25T13:32:58.194Z,101426
2018-05-25T13:35:26.327Z,101424
2018-05-25T13:37:54.517Z,101430
2018-05-25T13:40:22.728Z,101421
2018-05-25T13:42:50.878Z,101418
2018-05-25T13:45:19.071Z,101421
2018-05-25T13:47:47.194Z,101418
2018-05-25T13:50:15.347Z,101424
2018-05-25T13:52:43.507Z,101422
2018-05-25T13:55:12.464Z,101418
2018-05-25T13:57:40.636Z,101422
2018-05-25T14:00:08.778Z,101412
2018-05-25T14:02:36.946Z,101412
2018-05-25T14:05:05.123Z,101414
2018-05-25T14:07:33.314Z,101416
2018-05-25T14:10:01.516Z,101409
2018-05-25T14:12:30.410Z,101404
2018-05-25T14:14:58.531Z,101399
2018-05-25T14:17:26.691Z,101396
2018-05-25T14:19:54.812Z,101395
2018-05-25T14:22:22.945Z,101394
2018-05-25T14:24:51.074Z,101387
2018-05-25T14:27:19.664Z,101398
2018-05-25T14:29:48.572Z,101395
2018-05-25T14:32:16.718Z,101392
2018-05-25T14:34:45.671Z,101400
2018-05-25T14:37:13.815Z,101406
2018-05-25T14:39:42.017Z,101396
2018-05-25T14:42:10.145Z,101409
2018-05-25T14:44:38.319Z,101398
2018-05-25T14:47:06.507Z,101402
2018-05-25T14:49:35.404Z,101389
2018-05-25T14:52:03.548Z,101386
2018-05-25T14:54:32.472Z,101378
2018-05-25T14:57:00.629Z,101378
2018-05-25T14:59:28.806Z,101382
2018-05-25T15:01:57.003Z,101384
2018-05-25T15:04:25.195Z,101377
2018-05-25T15:06:53.353Z,101376
2018-05-25T15:09:21.527Z,101379
2018-05-25T15:11:49.693Z,101372
2018-05-25T15:14:17.988Z,101371
2018-05-25T15:16:46.112Z,101369
2018-05-25T15:19:14.249Z,101372
2018-05-25T15:21:42.432Z,101386
2018-05-25T15:24:11.349Z,101380
2018-05-25T15:26:39.514Z,101389
2018-05-25T15:29:07.665Z,101382
2018-05-25T15:31:36.613Z,101383
2018-05-25T15:34:04.806Z,101379
2018-05-25T15:36:33.048Z,101386
2018-05-25T15:39:01.241Z,101384
2018-05-25T15:41:29.440Z,101376
2018-05-25T15:43:57.564Z,101380
2018-05-25T15:46:25.758Z,101378
2018-05-25T15:48:53.936Z,101372
2018-05-25T15:51:22.186Z,101373
2018-05-25T15:53:50.347Z,101376
2018-05-25T15:56:18.556Z,101379
2018-05-25T15:58:46.722Z,101369
2018-05-25T16:01:14.878Z,101375
2018-05-25T16:03:42.999Z,101371
2018-05-25T16:06:11.142Z,101375
2018-05-25T16:08:39.352Z,101376
2018-05-25T16:11:07.487Z,101371
2018-05-25T16:13:36.002Z,101366
2018-05-25T16:16:04.187Z,101372
2018-05-25T16:18:33.943Z,101372
2018-05-25T16:21:02.117Z,101373
2018-05-25T16:23:30.265Z,101374
2018-05-25T16:25:58.434Z,101374
2018-05-25T16:28:26.596Z,101374
2018-05-25T16:30:54.808Z,101380
2018-05-25T16:33:22.940Z,101372
2018-05-25T16:35:51.960Z,101367
2018-05-25T16:38:20.085Z,101372
2018-05-25T16:40:48.331Z,101368
2018-05-25T16:43:17.020Z,101366
2018-05-25T16:45:45.149Z,101367
2018-05-25T16:48:13.291Z,101375
2018-05-25T16:50:42.197Z,101375
2018-05-25T16:53:11.110Z,101370
2018-05-25T16:55:39.240Z,101375
2018-05-25T16:58:07.415Z,101371
2018-05-25T17:00:35.672Z,101376
2018-05-25T17:03:04.431Z,101369
2018-05-25T17:05:32.630Z,101373
2018-05-25T17:08:01.005Z,101378
2018-05-25T17:10:29.147Z,101381
2018-05-25T17:12:57.410Z,101374
2018-05-25T17:15:26.315Z,101373
2018-05-25T17:17:54.469Z,101374
2018-05-25T17:20:22.612Z,101381
2018-05-25T17:22:51.204Z,101379
2018-05-25T17:25:20.132Z,101376
2018-05-25T17:27:48.331Z,101380
2018-05-25T17:30:16.469Z,101381
2018-05-25T17:32:44.639Z,101382
2018-05-25T17:35:12.832Z,101385
2018-05-25T17:37:41.023Z,101383
2018-05-25T17:40:09.178Z,101397
2018-05-25T17:42:37.326Z,101395
2018-05-25T17:45:05.465Z,101404
2018-05-25T17:47:33.687Z,101408
2018-05-25T17:50:01.862Z,101401
2018-05-25T17:52:29.981Z,101412
2018-05-25T17:54:58.155Z,101414
2018-05-25T17:57:26.302Z,101399
2018-05-25T17:59:54.484Z,101415
2018-05-25T18:02:22.614Z,101427
2018-05-25T18:04:50.770Z,101420
2018-05-25T18:07:18.924Z,101422
2018-05-25T18:09:47.856Z,101430
2018-05-25T18:12:15.994Z,101437
2018-05-25T18:14:45.140Z,101444
2018-05-25T18:17:13.314Z,101439
2018-05-25T18:19:41.486Z,101446
2018-05-25T18:22:09.696Z,101448
2018-05-25T18:24:38.620Z,101446
2018-05-25T18:27:06.790Z,101440
2018-05-25T18:29:34.983Z,101455
2018-05-25T18:32:03.854Z,101445
2018-05-25T18:34:32.025Z,101447
2018-05-25T18:37:00.703Z,101441
2018-05-25T18:39:29.620Z,101458
2018-05-25T18:41:57.779Z,101461
2018-05-25T18:44:25.950Z,101457
2018-05-25T18:46:54.084Z,101463
2018-05-25T18:49:23.250Z,101467
2018-05-25T18:51:51.438Z,101472
2018-05-25T18:54:34.194Z,101478
2018-05-25T18:57:02.425Z,101483
2018-05-25T18:59:30.590Z,101486
2018-05-25T19:01:58.824Z,101484
2018-05-25T19:04:26.986Z,101489
2018-05-25T19:06:55.141Z,101490
2018-05-25T19:09:23.278Z,101495
2018-05-25T19:11:51.442Z,101495
2018-05-25T19:14:19.633Z,101499
2018-05-25T19:16:47.809Z,101502
2018-05-25T19:19:16.086Z,101509
2018-05-25T19:21:44.253Z,101504
2018-05-25T19:24:12.419Z,101512
2018-05-25T19:26:40.597Z,101500
2018-05-25T19:29:08.730Z,101499
2018-05-25T19:31:36.932Z,101503
2018-05-25T19:34:05.213Z,101500
2018-05-25T19:36:33.379Z,101502
2018-05-25T19:39:01.559Z,101504
2018-05-25T19:41:29.772Z,101510
2018-05-25T19:43:58.686Z,101508
2018-05-25T19:46:26.881Z,101507
2018-05-25T19:48:55.102Z,101508
2018-05-25T19:51:24.046Z,101515
2018-05-25T19:53:52.384Z,101517
2018-05-25T19:56:20.541Z,101518
2018-05-25T19:58:48.698Z,101513
2018-05-25T20:01:16.837Z,101505
2018-05-25T20:03:46.006Z,101507
2018-05-25T20:06:14.410Z,101503
2018-05-25T20:08:42.574Z,101513
2018-05-25T20:11:10.758Z,101500
2018-05-25T20:13:38.912Z,101508
2018-05-25T20:16:07.131Z,101510
2018-05-25T20:18:35.306Z,101511
2018-05-25T20:21:04.335Z,101513
2018-05-25T20:23:33.383Z,101518
2018-05-25T20:26:01.567Z,101511
2018-05-25T20:28:29.845Z,101506
2018-05-25T20:30:57.982Z,101511
2018-05-25T20:33:26.127Z,101521
2018-05-25T20:35:55.091Z,101515
2018-05-25T20:38:23.290Z,101520
2018-05-25T20:40:51.490Z,101515
2018-05-25T20:43:20.481Z,101521
2018-05-25T20:45:48.629Z,101520
2018-05-25T20:48:17.526Z,101519
2018-05-25T20:50:45.709Z,101527
2018-05-25T20:53:13.924Z,101522
2018-05-25T20:55:42.131Z,101522
2018-05-25T20:58:11.141Z,101519
2018-05-25T21:00:39.343Z,101532
2018-05-25T21:03:07.516Z,101497
2018-05-25T21:05:35.682Z,101534
2018-05-25T21:08:03.833Z,101534
2018-05-25T21:10:32.761Z,101534
2018-05-25T21:13:00.898Z,101530
2018-05-25T21:15:29.048Z,101532
2018-05-25T21:17:57.929Z,101532
2018-05-25T21:20:26.083Z,101537
2018-05-25T21:22:54.240Z,101540
2018-05-25T21:25:22.392Z,101544
2018-05-25T21:27:51.019Z,101550
2018-05-25T21:30:19.206Z,101550
2018-05-25T21:32:48.141Z,101551
2018-05-25T21:35:16.289Z,101553
2018-05-25T21:37:44.450Z,101548
2018-05-25T21:40:14.360Z,101552
2018-05-25T21:42:43.331Z,101553
2018-05-25T21:45:11.479Z,101550
2018-05-25T21:47:40.340Z,101556
2018-05-25T21:50:08.642Z,101554
2018-05-25T21:52:36.849Z,101557
2018-05-25T21:55:05.438Z,101556
2018-05-25T21:57:33.593Z,101557
2018-05-25T22:00:01.824Z,101554
2018-05-25T22:02:29.959Z,101551
2018-05-25T22:04:58.153Z,101551
2018-05-25T22:07:26.295Z,101556
2018-05-25T22:10:04.374Z,101558
2018-05-25T22:12:32.766Z,101566
2018-05-25T22:15:00.930Z,101574
2018-05-25T22:17:29.165Z,101581
2018-05-25T22:19:57.365Z,101555
2018-05-25T22:22:26.472Z,101564
2018-05-25T22:24:54.614Z,101562
2018-05-25T22:27:22.775Z,101558
2018-05-25T22:29:51.611Z,101556
2018-05-25T22:32:19.780Z,101568
2018-05-25T22:34:47.967Z,101559
2018-05-25T22:37:16.168Z,101567
2018-05-25T22:39:45.070Z,101565
2018-05-25T22:42:12.522Z,101568
2018-05-25T22:44:58.668Z,101558
2018-05-25T22:47:44.851Z,101554
2018-05-25T22:50:30.837Z,101558
2018-05-25T22:53:03.684Z,101556
2018-05-25T22:55:32.572Z,101556
2018-05-25T22:58:00.743Z,101559
2018-05-25T23:00:29.694Z,101568
2018-05-25T23:02:57.866Z,101566
2018-05-25T23:05:25.997Z,101568
2018-05-25T23:07:54.178Z,101561
2018-05-25T23:10:22.337Z,101555
2018-05-25T23:12:50.491Z,101565
2018-05-25T23:15:19.401Z,101559
2018-05-25T23:17:47.555Z,101556
2018-05-25T23:20:15.736Z,101553
2018-05-25T23:22:43.879Z,101552
2018-05-25T23:25:12.039Z,101560
2018-05-25T23:27:40.198Z,101559
2018-05-25T23:30:08.361Z,101558
2018-05-25T23:32:36.509Z,101556
2018-05-25T23:35:04.633Z,101565
2018-05-25T23:37:32.895Z,101559
2018-05-25T23:40:01.445Z,101564
2018-05-25T23:42:29.627Z,101555
2018-05-25T23:44:57.842Z,101556
2018-05-25T23:47:26.018Z,101555
2018-05-25T23:49:54.817Z,101554
2018-05-25T23:52:23.724Z,101559
2018-05-25T23:54:51.877Z,101558
2018-05-25T23:57:20.120Z,101562
2018-05-25T23:59:48.294Z,101556
